sensor_id;sensor_type;location;lat;lon;timestamp;pressure;altitude;pressure_sealevel;temperature;humidity
10840;BME280;5473;42.706;23.328;2022-12-31T00:00:12;-14565.91;;;-142.93;83.47
10840;BME280;5473;42.706;23.328;2022-12-31T00:02:40;-14565.91;;;-142.93;85.56
10840;BME280;5473;42.706;23.328;2022-12-31T00:05:07;-14565.91;;;-142.93;88.08
10840;BME280;5473;42.706;23.328;2022-12-31T00:07:35;-14565.91;;;-142.93;90.10
10840;BME280;5473;42.706;23.328;2022-12-31T00:10:02;-14565.91;;;-142.93;93.66
10840;BME280;5473;42.706;23.328;2022-12-31T00:12:29;-14565.91;;;-142.93;96.92
10840;BME280;5473;42.706;23.328;2022-12-31T00:14:56;-14565.91;;;-142.93;99.55
10840;BME280;5473;42.706;23.328;2022-12-31T00:17:22;-14565.91;;;-142.93;100.00
10840;BME280;5473;42.706;23.328;2022-12-31T00:19:51;-14565.91;;;-142.93;100.00
10840;BME280;5473;42.706;23.328;2022-12-31T00:22:17;-14565.91;;;-142.93;100.00
10840;BME280;5473;42.706;23.328;2022-12-31T00:24:44;-14565.91;;;-142.93;100.00
10840;BME280;5473;42.706;23.328;2022-12-31T00:27:11;-14565.91;;;-142.93;100.00
10840;BME280;5473;42.706;23.328;2022-12-31T00:29:38;-14565.91;;;-142.93;100.00
10840;BME280;5473;42.706;23.328;2022-12-31T00:32:04;-14565.91;;;-142.93;100.00
10840;BME280;5473;42.706;23.328;2022-12-31T00:34:32;-14565.91;;;-142.93;100.00
10840;BME280;5473;42.706;23.328;2022-12-31T00:37:00;-14565.91;;;-142.93;100.00
10840;BME280;5473;42.706;23.328;2022-12-31T00:39:27;-14565.91;;;-142.93;100.00
10840;BME280;5473;42.706;23.328;2022-12-31T00:41:54;-14565.91;;;-142.93;100.00
10840;BME280;5473;42.706;23.328;2022-12-31T00:44:20;-14565.91;;;-142.93;100.00
10840;BME280;5473;42.706;23.328;2022-12-31T00:46:47;-14565.91;;;-142.93;100.00
10840;BME280;5473;42.706;23.328;2022-12-31T00:49:14;-14565.91;;;-142.93;100.00
10840;BME280;5473;42.706;23.328;2022-12-31T00:51:41;-14565.91;;;-142.93;100.00
10840;BME280;5473;42.706;23.328;2022-12-31T00:54:09;-14565.91;;;-142.93;100.00
10840;BME280;5473;42.706;23.328;2022-12-31T00:56:36;-14565.91;;;-142.93;100.00
10840;BME280;5473;42.706;23.328;2022-12-31T00:59:03;-14565.91;;;-142.93;100.00
10840;BME280;5473;42.706;23.328;2022-12-31T01:01:31;-14565.91;;;-142.93;100.00
10840;BME280;5473;42.706;23.328;2022-12-31T01:04:00;-14565.91;;;-142.93;100.00
10840;BME280;5473;42.706;23.328;2022-12-31T01:06:27;-14565.91;;;-142.93;100.00
10840;BME280;5473;42.706;23.328;2022-12-31T01:08:54;-14565.91;;;-142.93;100.00
10840;BME280;5473;42.706;23.328;2022-12-31T01:11:23;-14565.91;;;-142.93;100.00
10840;BME280;5473;42.706;23.328;2022-12-31T01:14:00;-14565.91;;;-142.93;100.00
10840;BME280;5473;42.706;23.328;2022-12-31T01:16:29;-14565.91;;;-142.93;100.00
10840;BME280;5473;42.706;23.328;2022-12-31T01:18:57;-14565.91;;;-142.93;100.00
10840;BME280;5473;42.706;23.328;2022-12-31T01:21:25;-14565.91;;;-142.93;100.00
10840;BME280;5473;42.706;23.328;2022-12-31T01:23:52;-14565.91;;;-142.93;100.00
10840;BME280;5473;42.706;23.328;2022-12-31T01:26:19;-14565.91;;;-142.93;100.00
10840;BME280;5473;42.706;23.328;2022-12-31T01:28:47;-14565.91;;;-142.93;100.00
10840;BME280;5473;42.706;23.328;2022-12-31T01:31:15;-14565.91;;;-142.93;100.00
10840;BME280;5473;42.706;23.328;2022-12-31T01:33:42;-14565.91;;;-142.93;100.00
10840;BME280;5473;42.706;23.328;2022-12-31T01:36:11;-14565.91;;;-142.93;100.00
10840;BME280;5473;42.706;23.328;2022-12-31T01:38:38;-14565.91;;;-142.93;100.00
10840;BME280;5473;42.706;23.328;2022-12-31T01:41:05;-14565.91;;;-142.93;100.00
10840;BME280;5473;42.706;23.328;2022-12-31T01:43:44;-14565.91;;;-142.93;100.00
10840;BME280;5473;42.706;23.328;2022-12-31T01:46:19;-14565.91;;;-142.93;100.00
10840;BME280;5473;42.706;23.328;2022-12-31T01:48:52;-14565.91;;;-142.93;100.00
10840;BME280;5473;42.706;23.328;2022-12-31T01:51:20;-14565.91;;;-142.93;100.00
10840;BME280;5473;42.706;23.328;2022-12-31T01:53:49;-14565.91;;;-142.93;100.00
10840;BME280;5473;42.706;23.328;2022-12-31T01:56:17;-14565.91;;;-142.93;100.00
10840;BME280;5473;42.706;23.328;2022-12-31T01:58:47;-14565.91;;;-142.93;100.00
10840;BME280;5473;42.706;23.328;2022-12-31T02:01:20;-14565.91;;;-142.93;100.00
10840;BME280;5473;42.706;23.328;2022-12-31T02:03:49;-14565.91;;;-142.93;100.00
10840;BME280;5473;42.706;23.328;2022-12-31T02:06:19;-14565.91;;;-142.93;100.00
10840;BME280;5473;42.706;23.328;2022-12-31T02:08:47;-14565.91;;;-142.93;100.00
10840;BME280;5473;42.706;23.328;2022-12-31T02:11:22;-14565.91;;;-142.93;100.00
10840;BME280;5473;42.706;23.328;2022-12-31T02:13:49;-14565.91;;;-142.93;100.00
10840;BME280;5473;42.706;23.328;2022-12-31T02:16:25;-14565.91;;;-142.93;100.00
10840;BME280;5473;42.706;23.328;2022-12-31T02:19:00;-14565.91;;;-142.93;100.00
10840;BME280;5473;42.706;23.328;2022-12-31T02:21:48;-14565.91;;;-142.93;100.00
10840;BME280;5473;42.706;23.328;2022-12-31T02:24:49;-14565.91;;;-142.93;100.00
10840;BME280;5473;42.706;23.328;2022-12-31T02:27:26;-14565.91;;;-142.93;100.00
10840;BME280;5473;42.706;23.328;2022-12-31T02:30:12;-14565.91;;;-142.93;100.00
10840;BME280;5473;42.706;23.328;2022-12-31T02:33:03;-14565.91;;;-142.93;100.00
10840;BME280;5473;42.706;23.328;2022-12-31T02:35:36;-14565.91;;;-142.93;100.00
10840;BME280;5473;42.706;23.328;2022-12-31T02:38:09;-14565.91;;;-142.93;100.00
10840;BME280;5473;42.706;23.328;2022-12-31T02:40:37;-14565.91;;;-142.93;100.00
10840;BME280;5473;42.706;23.328;2022-12-31T02:43:04;-14565.91;;;-142.93;100.00
10840;BME280;5473;42.706;23.328;2022-12-31T02:45:36;-14565.91;;;-142.93;100.00
10840;BME280;5473;42.706;23.328;2022-12-31T02:48:15;-14565.91;;;-142.93;100.00
10840;BME280;5473;42.706;23.328;2022-12-31T02:50:51;-14565.91;;;-142.93;100.00
10840;BME280;5473;42.706;23.328;2022-12-31T02:53:36;-14565.91;;;-142.93;100.00
10840;BME280;5473;42.706;23.328;2022-12-31T02:56:12;-14565.91;;;-142.93;100.00
10840;BME280;5473;42.706;23.328;2022-12-31T02:58:49;-14565.91;;;-142.93;100.00
10840;BME280;5473;42.706;23.328;2022-12-31T03:01:40;-14565.91;;;-142.93;100.00
10840;BME280;5473;42.706;23.328;2022-12-31T03:04:27;-14565.91;;;-142.93;100.00
10840;BME280;5473;42.706;23.328;2022-12-31T03:06:59;-14565.91;;;-142.93;100.00
10840;BME280;5473;42.706;23.328;2022-12-31T03:09:26;-14565.91;;;-142.93;100.00
10840;BME280;5473;42.706;23.328;2022-12-31T03:11:53;-14565.91;;;-142.93;100.00
10840;BME280;5473;42.706;23.328;2022-12-31T03:14:37;-14565.91;;;-142.93;100.00
10840;BME280;5473;42.706;23.328;2022-12-31T03:17:06;-14565.91;;;-142.93;100.00
10840;BME280;5473;42.706;23.328;2022-12-31T03:19:32;-14565.91;;;-142.93;100.00
10840;BME280;5473;42.706;23.328;2022-12-31T03:22:16;-14565.91;;;-142.93;100.00
10840;BME280;5473;42.706;23.328;2022-12-31T03:24:57;-14565.91;;;-142.93;100.00
10840;BME280;5473;42.706;23.328;2022-12-31T03:27:42;-14565.91;;;-142.93;100.00
10840;BME280;5473;42.706;23.328;2022-12-31T03:30:11;-14565.91;;;-142.93;100.00
10840;BME280;5473;42.706;23.328;2022-12-31T03:32:40;-14565.91;;;-142.93;100.00
10840;BME280;5473;42.706;23.328;2022-12-31T03:35:08;-14565.91;;;-142.93;100.00
10840;BME280;5473;42.706;23.328;2022-12-31T03:37:36;-14565.91;;;-142.93;100.00
10840;BME280;5473;42.706;23.328;2022-12-31T03:40:03;-14565.91;;;-142.93;100.00
10840;BME280;5473;42.706;23.328;2022-12-31T03:42:30;-14565.91;;;-142.93;100.00
10840;BME280;5473;42.706;23.328;2022-12-31T03:44:57;-14565.91;;;-142.93;100.00
10840;BME280;5473;42.706;23.328;2022-12-31T03:47:24;-14565.91;;;-142.93;100.00
10840;BME280;5473;42.706;23.328;2022-12-31T03:49:52;-14565.91;;;-142.93;100.00
10840;BME280;5473;42.706;23.328;2022-12-31T03:52:19;-14565.91;;;-142.93;100.00
10840;BME280;5473;42.706;23.328;2022-12-31T03:54:45;-14565.91;;;-142.93;100.00
10840;BME280;5473;42.706;23.328;2022-12-31T03:57:12;-14565.91;;;-142.93;100.00
10840;BME280;5473;42.706;23.328;2022-12-31T03:59:39;-14565.91;;;-142.93;100.00
10840;BME280;5473;42.706;23.328;2022-12-31T04:02:06;-14565.91;;;-142.93;100.00
10840;BME280;5473;42.706;23.328;2022-12-31T04:04:32;-14565.91;;;-142.93;100.00
10840;BME280;5473;42.706;23.328;2022-12-31T04:07:00;-14565.91;;;-142.93;100.00
10840;BME280;5473;42.706;23.328;2022-12-31T04:09:27;-14565.91;;;-142.93;100.00
10840;BME280;5473;42.706;23.328;2022-12-31T04:11:54;-14565.91;;;-142.93;100.00
10840;BME280;5473;42.706;23.328;2022-12-31T04:14:21;-14565.91;;;-142.93;100.00
10840;BME280;5473;42.706;23.328;2022-12-31T04:16:48;-14565.91;;;-142.93;100.00
10840;BME280;5473;42.706;23.328;2022-12-31T04:19:15;-14565.91;;;-142.93;100.00
10840;BME280;5473;42.706;23.328;2022-12-31T04:21:41;-14565.91;;;-142.93;100.00
10840;BME280;5473;42.706;23.328;2022-12-31T04:24:09;-14565.91;;;-142.93;100.00
10840;BME280;5473;42.706;23.328;2022-12-31T04:26:37;-14565.91;;;-142.93;100.00
10840;BME280;5473;42.706;23.328;2022-12-31T04:29:04;-14565.91;;;-142.93;100.00
10840;BME280;5473;42.706;23.328;2022-12-31T04:31:31;-14565.91;;;-142.93;100.00
10840;BME280;5473;42.706;23.328;2022-12-31T04:33:58;-14565.91;;;-142.93;100.00
10840;BME280;5473;42.706;23.328;2022-12-31T04:36:24;-14565.91;;;-142.93;100.00
10840;BME280;5473;42.706;23.328;2022-12-31T04:38:51;-14565.91;;;-142.93;100.00
10840;BME280;5473;42.706;23.328;2022-12-31T04:41:20;-14565.91;;;-142.93;100.00
10840;BME280;5473;42.706;23.328;2022-12-31T04:43:47;-14565.91;;;-142.93;100.00
10840;BME280;5473;42.706;23.328;2022-12-31T04:46:16;-14565.91;;;-142.93;100.00
10840;BME280;5473;42.706;23.328;2022-12-31T04:48:43;-14565.91;;;-142.93;100.00
10840;BME280;5473;42.706;23.328;2022-12-31T04:51:10;-14565.91;;;-142.93;100.00
10840;BME280;5473;42.706;23.328;2022-12-31T04:53:37;-14565.91;;;-142.93;100.00
10840;BME280;5473;42.706;23.328;2022-12-31T04:56:05;-14565.91;;;-142.93;100.00
10840;BME280;5473;42.706;23.328;2022-12-31T04:58:34;-14565.91;;;-142.93;100.00
10840;BME280;5473;42.706;23.328;2022-12-31T05:01:01;-14565.91;;;-142.93;100.00
10840;BME280;5473;42.706;23.328;2022-12-31T05:03:28;-14565.91;;;-142.93;99.90
10840;BME280;5473;42.706;23.328;2022-12-31T05:05:59;-14565.91;;;-142.93;99.63
10840;BME280;5473;42.706;23.328;2022-12-31T05:08:27;-14565.91;;;-142.93;99.46
10840;BME280;5473;42.706;23.328;2022-12-31T05:10:53;-14565.91;;;-142.93;99.56
10840;BME280;5473;42.706;23.328;2022-12-31T05:13:22;-14565.91;;;-142.93;99.10
10840;BME280;5473;42.706;23.328;2022-12-31T05:15:50;-14565.91;;;-142.93;98.79
10840;BME280;5473;42.706;23.328;2022-12-31T05:18:17;-14565.91;;;-142.93;98.37
10840;BME280;5473;42.706;23.328;2022-12-31T05:20:44;-14565.91;;;-142.93;98.10
10840;BME280;5473;42.706;23.328;2022-12-31T05:23:11;-14565.91;;;-142.93;97.99
10840;BME280;5473;42.706;23.328;2022-12-31T05:25:39;-14565.91;;;-142.93;97.88
10840;BME280;5473;42.706;23.328;2022-12-31T05:28:06;-14565.91;;;-142.93;97.65
10840;BME280;5473;42.706;23.328;2022-12-31T05:30:33;-14565.91;;;-142.93;97.54
10840;BME280;5473;42.706;23.328;2022-12-31T05:33:01;-14565.91;;;-142.93;97.54
10840;BME280;5473;42.706;23.328;2022-12-31T05:35:28;-14565.91;;;-142.93;97.41
10840;BME280;5473;42.706;23.328;2022-12-31T05:37:55;-14565.91;;;-142.93;96.79
10840;BME280;5473;42.706;23.328;2022-12-31T05:40:22;-14565.91;;;-142.93;95.98
10840;BME280;5473;42.706;23.328;2022-12-31T05:42:49;-14565.91;;;-142.93;95.74
10840;BME280;5473;42.706;23.328;2022-12-31T05:45:16;-14565.91;;;-142.93;94.65
10840;BME280;5473;42.706;23.328;2022-12-31T05:47:43;-14565.91;;;-142.93;94.01
10840;BME280;5473;42.706;23.328;2022-12-31T05:50:13;-14565.91;;;-142.93;93.57
10840;BME280;5473;42.706;23.328;2022-12-31T05:52:41;-14565.91;;;-142.93;93.12
10840;BME280;5473;42.706;23.328;2022-12-31T05:55:08;-14565.91;;;-142.93;92.53
10840;BME280;5473;42.706;23.328;2022-12-31T05:57:35;-14565.91;;;-142.93;91.94
10840;BME280;5473;42.706;23.328;2022-12-31T06:00:04;-14565.91;;;-142.93;91.46
10840;BME280;5473;42.706;23.328;2022-12-31T06:02:31;-14565.91;;;-142.93;90.88
10840;BME280;5473;42.706;23.328;2022-12-31T06:04:58;-14565.91;;;-142.93;90.31
10840;BME280;5473;42.706;23.328;2022-12-31T06:07:26;-14565.91;;;-142.93;90.19
10840;BME280;5473;42.706;23.328;2022-12-31T06:09:53;-14565.91;;;-142.93;89.95
10840;BME280;5473;42.706;23.328;2022-12-31T06:12:19;-14565.91;;;-142.93;89.95
10840;BME280;5473;42.706;23.328;2022-12-31T06:14:46;-14565.91;;;-142.93;89.01
10840;BME280;5473;42.706;23.328;2022-12-31T06:17:13;-14565.91;;;-142.93;88.86
10840;BME280;5473;42.706;23.328;2022-12-31T06:19:40;-14565.91;;;-142.93;88.63
10840;BME280;5473;42.706;23.328;2022-12-31T06:22:06;-14565.91;;;-142.93;88.33
10840;BME280;5473;42.706;23.328;2022-12-31T06:24:34;-14565.91;;;-142.93;87.97
10840;BME280;5473;42.706;23.328;2022-12-31T06:27:01;-14565.91;;;-142.93;87.99
10840;BME280;5473;42.706;23.328;2022-12-31T06:29:28;-14565.91;;;-142.93;87.82
10840;BME280;5473;42.706;23.328;2022-12-31T06:31:55;-14565.91;;;-142.93;87.51
10840;BME280;5473;42.706;23.328;2022-12-31T06:34:21;-14565.91;;;-142.93;87.17
10840;BME280;5473;42.706;23.328;2022-12-31T06:36:48;-14565.91;;;-142.93;86.81
10840;BME280;5473;42.706;23.328;2022-12-31T06:39:15;-14565.91;;;-142.93;86.37
10840;BME280;5473;42.706;23.328;2022-12-31T06:41:43;-14565.91;;;-142.93;85.92
10840;BME280;5473;42.706;23.328;2022-12-31T06:44:10;-14565.91;;;-142.93;85.50
10840;BME280;5473;42.706;23.328;2022-12-31T06:46:36;-14565.91;;;-142.93;85.24
10840;BME280;5473;42.706;23.328;2022-12-31T06:49:03;-14565.91;;;-142.93;84.96
10840;BME280;5473;42.706;23.328;2022-12-31T06:51:30;-14565.91;;;-142.93;84.37
10840;BME280;5473;42.706;23.328;2022-12-31T06:53:56;-14565.91;;;-142.93;83.95
10840;BME280;5473;42.706;23.328;2022-12-31T06:56:25;-14565.91;;;-142.93;83.43
10840;BME280;5473;42.706;23.328;2022-12-31T06:58:55;-14565.91;;;-142.93;82.71
10840;BME280;5473;42.706;23.328;2022-12-31T07:01:41;-14565.91;;;-142.93;82.14
10840;BME280;5473;42.706;23.328;2022-12-31T07:07:31;-14565.91;;;-142.93;81.40
10840;BME280;5473;42.706;23.328;2022-12-31T07:10:03;-14565.91;;;-142.93;81.35
10840;BME280;5473;42.706;23.328;2022-12-31T07:12:40;-14565.91;;;-142.93;81.56
10840;BME280;5473;42.706;23.328;2022-12-31T07:15:13;-14565.91;;;-142.93;81.54
10840;BME280;5473;42.706;23.328;2022-12-31T07:17:47;-14565.91;;;-142.93;80.22
10840;BME280;5473;42.706;23.328;2022-12-31T07:20:20;-14565.91;;;-142.93;75.42
10840;BME280;5473;42.706;23.328;2022-12-31T07:22:47;-14565.91;;;-142.93;69.27
10840;BME280;5473;42.706;23.328;2022-12-31T07:25:15;-14565.91;;;-142.93;64.29
10840;BME280;5473;42.706;23.328;2022-12-31T07:27:53;-14565.91;;;-142.93;60.39
10840;BME280;5473;42.706;23.328;2022-12-31T07:30:30;-14565.91;;;-142.93;60.03
10840;BME280;5473;42.706;23.328;2022-12-31T07:35:59;-14565.91;;;-142.93;90.40
10840;BME280;5473;42.706;23.328;2022-12-31T07:38:33;-14565.91;;;-142.93;100.00
10840;BME280;5473;42.706;23.328;2022-12-31T07:41:07;-14565.91;;;-142.93;100.00
10840;BME280;5473;42.706;23.328;2022-12-31T07:43:43;-14313.72;;;-142.93;100.00
10840;BME280;5473;42.706;23.328;2022-12-31T07:46:19;-12056.34;;;-142.93;100.00
10840;BME280;5473;42.706;23.328;2022-12-31T07:48:48;-9546.28;;;-142.93;100.00
10840;BME280;5473;42.706;23.328;2022-12-31T07:51:15;-7034.31;;;-142.93;100.00
10840;BME280;5473;42.706;23.328;2022-12-31T07:53:42;-4771.91;;;-142.93;100.00
10840;BME280;5473;42.706;23.328;2022-12-31T07:56:09;-1501.19;;;-142.93;100.00
10840;BME280;5473;42.706;23.328;2022-12-31T07:58:49;-997.69;;;-142.93;100.00
10840;BME280;5473;42.706;23.328;2022-12-31T08:01:29;1772.81;;;-142.93;100.00
10840;BME280;5473;42.706;23.328;2022-12-31T08:04:02;4545.66;;;-142.93;100.00
10840;BME280;5473;42.706;23.328;2022-12-31T08:06:37;9088.09;;;-142.93;100.00
10840;BME280;5473;42.706;23.328;2022-12-31T08:09:11;13636.81;;;-142.93;100.00
10840;BME280;5473;42.706;23.328;2022-12-31T08:11:47;18445.00;;;-142.93;100.00
10840;BME280;5473;42.706;23.328;2022-12-31T08:14:17;26070.97;;;-142.93;100.00
10840;BME280;5473;42.706;23.328;2022-12-31T08:16:46;30738.34;;;-142.93;100.00
10840;BME280;5473;42.706;23.328;2022-12-31T08:19:21;30875.38;;;-142.93;100.00
10840;BME280;5473;42.706;23.328;2022-12-31T08:21:59;30275.69;;;-142.93;100.00
10840;BME280;5473;42.706;23.328;2022-12-31T08:24:36;31814.81;;;-142.93;100.00
10840;BME280;5473;42.706;23.328;2022-12-31T08:27:11;27588.34;;;-142.93;100.00
10840;BME280;5473;42.706;23.328;2022-12-31T08:29:45;21485.38;;;-142.93;100.00
10840;BME280;5473;42.706;23.328;2022-12-31T08:32:21;20471.59;;;-142.93;100.00
10840;BME280;5473;42.706;23.328;2022-12-31T08:34:57;28316.53;;;-142.93;100.00
10840;BME280;5473;42.706;23.328;2022-12-31T08:37:33;32963.19;;;-142.93;100.00
10840;BME280;5473;42.706;23.328;2022-12-31T08:40:15;34479.72;;;-142.93;100.00
10840;BME280;5473;42.706;23.328;2022-12-31T08:42:56;35225.31;;;-142.93;100.00
10840;BME280;5473;42.706;23.328;2022-12-31T08:45:29;35173.63;;;-142.93;100.00
10840;BME280;5473;42.706;23.328;2022-12-31T08:48:04;35173.63;;;-142.93;100.00
10840;BME280;5473;42.706;23.328;2022-12-31T08:50:36;34756.06;;;-142.93;100.00
10840;BME280;5473;42.706;23.328;2022-12-31T08:53:04;35090.09;;;-142.93;100.00
10840;BME280;5473;42.706;23.328;2022-12-31T08:55:31;35177.59;;;-142.93;100.00
10840;BME280;5473;42.706;23.328;2022-12-31T08:58:08;35219.34;;;-142.93;100.00
10840;BME280;5473;42.706;23.328;2022-12-31T09:00:36;34948.94;;;-142.93;100.00
10840;BME280;5473;42.706;23.328;2022-12-31T09:03:21;35284.97;;;-142.93;100.00
10840;BME280;5473;42.706;23.328;2022-12-31T09:05:55;35006.59;;;-142.93;100.00
10840;BME280;5473;42.706;23.328;2022-12-31T09:08:31;34787.88;;;-142.93;100.00
10840;BME280;5473;42.706;23.328;2022-12-31T09:11:06;34984.72;;;-142.93;100.00
10840;BME280;5473;42.706;23.328;2022-12-31T09:16:32;34958.88;;;-142.93;100.00
10840;BME280;5473;42.706;23.328;2022-12-31T09:19:04;35042.38;;;-142.93;100.00
10840;BME280;5473;42.706;23.328;2022-12-31T09:21:31;35058.28;;;-142.93;100.00
10840;BME280;5473;42.706;23.328;2022-12-31T09:23:59;35032.44;;;-142.93;100.00
10840;BME280;5473;42.706;23.328;2022-12-31T09:26:38;35591.22;;;-142.93;98.18
10840;BME280;5473;42.706;23.328;2022-12-31T09:29:14;35531.56;;;-142.93;98.45
10840;BME280;5473;42.706;23.328;2022-12-31T09:31:49;35589.22;;;-142.93;97.96
10840;BME280;5473;42.706;23.328;2022-12-31T09:34:23;35086.13;;;-142.93;100.00
10840;BME280;5473;42.706;23.328;2022-12-31T09:36:56;34972.78;;;-142.93;100.00
10840;BME280;5473;42.706;23.328;2022-12-31T09:39:36;34805.78;;;-142.93;100.00
10840;BME280;5473;42.706;23.328;2022-12-31T09:42:41;34245.16;;;-142.93;100.00
10840;BME280;5473;42.706;23.328;2022-12-31T09:45:32;34857.47;;;-142.93;100.00
10840;BME280;5473;42.706;23.328;2022-12-31T09:51:26;35503.72;;;-142.93;96.92
10840;BME280;5473;42.706;23.328;2022-12-31T09:54:13;34931.03;;;-142.93;100.00
10840;BME280;5473;42.706;23.328;2022-12-31T09:56:45;34610.94;;;-142.93;100.00
10840;BME280;5473;42.706;23.328;2022-12-31T09:59:21;35231.28;;;-142.93;97.41
10840;BME280;5473;42.706;23.328;2022-12-31T10:01:54;35430.16;;;-142.93;95.05
10840;BME280;5473;42.706;23.328;2022-12-31T10:04:38;35448.03;;;-142.93;93.79
10840;BME280;5473;42.706;23.328;2022-12-31T10:07:21;35587.25;;;-142.93;93.08
10840;BME280;5473;42.706;23.328;2022-12-31T10:09:59;35129.88;;;-142.93;98.13
10840;BME280;5473;42.706;23.328;2022-12-31T10:12:53;32510.16;;;-142.93;100.00
10840;BME280;5473;42.706;23.328;2022-12-31T10:15:52;31520.84;;;-142.93;100.00
10840;BME280;5473;42.706;23.328;2022-12-31T10:18:35;32341.28;;;-142.93;100.00
10840;BME280;5473;42.706;23.328;2022-12-31T10:21:18;32547.91;;;-142.93;100.00
10840;BME280;5473;42.706;23.328;2022-12-31T10:24:04;32017.44;;;-142.93;100.00
10840;BME280;5473;42.706;23.328;2022-12-31T10:26:52;33714.41;;;-142.93;100.00
10840;BME280;5473;42.706;23.328;2022-12-31T10:29:28;33750.19;;;-142.93;100.00
10840;BME280;5473;42.706;23.328;2022-12-31T10:32:13;34145.75;;;-142.93;100.00
10840;BME280;5473;42.706;23.328;2022-12-31T10:34:51;34925.06;;;-142.93;94.71
10840;BME280;5473;42.706;23.328;2022-12-31T10:37:20;35257.13;;;-142.93;93.19
10840;BME280;5473;42.706;23.328;2022-12-31T10:39:59;35209.41;;;-142.93;93.60
10840;BME280;5473;42.706;23.328;2022-12-31T10:46:01;34716.31;;;-142.93;97.53
10840;BME280;5473;42.706;23.328;2022-12-31T10:48:53;35060.28;;;-142.93;94.03
10840;BME280;5473;42.706;23.328;2022-12-31T10:55:02;35501.72;;;-142.93;89.70
10840;BME280;5473;42.706;23.328;2022-12-31T10:57:50;35734.41;;;-142.93;86.87
10840;BME280;5473;42.706;23.328;2022-12-31T11:00:28;35819.94;;;-142.93;85.34
10840;BME280;5473;42.706;23.328;2022-12-31T11:03:34;35953.19;;;-142.93;85.70
10840;BME280;5473;42.706;23.328;2022-12-31T11:06:31;35607.13;;;-142.93;89.12
10840;BME280;5473;42.706;23.328;2022-12-31T11:09:30;35587.25;;;-142.93;88.97
10840;BME280;5473;42.706;23.328;2022-12-31T11:12:13;35873.63;;;-142.93;85.56
10840;BME280;5473;42.706;23.328;2022-12-31T11:14:56;35806.00;;;-142.93;86.91
10840;BME280;5473;42.706;23.328;2022-12-31T11:17:32;35774.19;;;-142.93;87.85
10840;BME280;5473;42.706;23.328;2022-12-31T11:20:25;35732.44;;;-142.93;89.00
10840;BME280;5473;42.706;23.328;2022-12-31T11:23:03;35714.53;;;-142.93;87.01
10840;BME280;5473;42.706;23.328;2022-12-31T11:25:45;35889.53;;;-142.93;85.12
10840;BME280;5473;42.706;23.328;2022-12-31T11:28:30;35929.31;;;-142.93;82.99
10840;BME280;5473;42.706;23.328;2022-12-31T11:31:11;35979.03;;;-142.93;78.75
10840;BME280;5473;42.706;23.328;2022-12-31T11:33:53;36112.31;;;-142.93;75.20
10840;BME280;5473;42.706;23.328;2022-12-31T11:36:35;36241.59;;;-142.93;71.86
10840;BME280;5473;42.706;23.328;2022-12-31T11:39:33;36269.44;;;-142.93;69.72
10840;BME280;5473;42.706;23.328;2022-12-31T11:42:08;36247.56;;;-142.93;69.20
10840;BME280;5473;42.706;23.328;2022-12-31T11:44:44;36384.81;;;-142.93;71.48
10840;BME280;5473;42.706;23.328;2022-12-31T11:47:24;36354.97;;;-142.93;72.87
10840;BME280;5473;42.706;23.328;2022-12-31T11:50:08;36315.19;;;-142.93;78.51
10840;BME280;5473;42.706;23.328;2022-12-31T11:52:50;36189.88;;;-142.93;81.14
10840;BME280;5473;42.706;23.328;2022-12-31T11:55:40;36010.88;;;-142.93;84.71
10840;BME280;5473;42.706;23.328;2022-12-31T11:58:12;35726.47;;;-142.93;88.23
10840;BME280;5473;42.706;23.328;2022-12-31T12:00:45;35487.81;;;-142.93;90.96
10840;BME280;5473;42.706;23.328;2022-12-31T12:03:17;35710.53;;;-142.93;87.17
10840;BME280;5473;42.706;23.328;2022-12-31T12:05:44;35778.16;;;-142.93;85.27
10840;BME280;5473;42.706;23.328;2022-12-31T12:08:11;36008.88;;;-142.93;81.10
10840;BME280;5473;42.706;23.328;2022-12-31T12:10:41;36064.56;;;-142.93;78.84
10840;BME280;5473;42.706;23.328;2022-12-31T12:13:13;36124.25;;;-142.93;76.63
10840;BME280;5473;42.706;23.328;2022-12-31T12:15:48;36175.94;;;-142.93;79.38
10840;BME280;5473;42.706;23.328;2022-12-31T12:18:24;36104.34;;;-142.93;82.84
10840;BME280;5473;42.706;23.328;2022-12-31T12:20:59;35718.50;;;-142.93;88.61
10840;BME280;5473;42.706;23.328;2022-12-31T12:23:27;35221.34;;;-142.93;94.08
10840;BME280;5473;42.706;23.328;2022-12-31T12:25:53;34139.78;;;-142.93;100.00
10840;BME280;5473;42.706;23.328;2022-12-31T12:28:22;31467.22;;;-142.93;100.00
10840;BME280;5473;42.706;23.328;2022-12-31T12:30:56;27915.69;;;-142.93;100.00
10840;BME280;5473;42.706;23.328;2022-12-31T12:33:23;22753.00;;;-142.93;100.00
10840;BME280;5473;42.706;23.328;2022-12-31T12:35:50;18445.00;;;-142.93;100.00
10840;BME280;5473;42.706;23.328;2022-12-31T12:38:19;16672.75;;;-142.93;100.00
10840;BME280;5473;42.706;23.328;2022-12-31T12:40:55;13636.81;;;-142.93;100.00
10840;BME280;5473;42.706;23.328;2022-12-31T12:43:24;11867.13;;;-142.93;100.00
10840;BME280;5473;42.706;23.328;2022-12-31T12:45:54;10603.63;;;-142.93;100.00
10840;BME280;5473;42.706;23.328;2022-12-31T12:48:30;10351.00;;;-142.93;100.00
10840;BME280;5473;42.706;23.328;2022-12-31T12:50:58;8835.56;;;-142.93;100.00
10840;BME280;5473;42.706;23.328;2022-12-31T12:53:37;8583.06;;;-142.93;100.00
10840;BME280;5473;42.706;23.328;2022-12-31T12:56:17;8078.13;;;-142.93;100.00
10840;BME280;5473;42.706;23.328;2022-12-31T12:58:56;7320.84;;;-142.93;100.00
10840;BME280;5473;42.706;23.328;2022-12-31T13:01:31;6563.75;;;-142.93;100.00
10840;BME280;5473;42.706;23.328;2022-12-31T13:04:37;6311.41;;;-142.93;100.00
10840;BME280;5473;42.706;23.328;2022-12-31T13:07:22;5554.56;;;-142.93;100.00
10840;BME280;5473;42.706;23.328;2022-12-31T13:10:13;5554.56;;;-142.93;100.00
10840;BME280;5473;42.706;23.328;2022-12-31T13:12:47;5554.56;;;-142.93;100.00
10840;BME280;5473;42.706;23.328;2022-12-31T13:15:20;5302.28;;;-142.93;100.00